createdAt,value
2018-08-20T00:01:04.695Z,7.10
2018-08-20T00:03:42.620Z,7.47
2018-08-20T00:06:13.469Z,7.57
2018-08-20T00:08:44.317Z,6.70
2018-08-20T00:11:15.227Z,6.60
2018-08-20T00:13:45.986Z,6.67
2018-08-20T00:16:16.925Z,6.93
2018-08-20T00:18:47.737Z,6.40
2018-08-20T00:21:18.549Z,6.97
2018-08-20T00:23:49.349Z,7.33
2018-08-20T00:26:20.191Z,7.03
2018-08-20T00:28:51.000Z,7.07
2018-08-20T00:31:21.801Z,7.00
2018-08-20T00:33:52.611Z,7.43
2018-08-20T00:36:23.570Z,6.47
2018-08-20T00:38:54.426Z,6.57
2018-08-20T00:41:25.241Z,6.33
2018-08-20T00:43:56.246Z,6.90
2018-08-20T00:46:27.455Z,6.67
2018-08-20T00:48:58.288Z,6.67
2018-08-20T00:51:29.179Z,6.63
2018-08-20T00:53:59.978Z,6.77
2018-08-20T00:56:30.879Z,6.73
2018-08-20T00:59:02.624Z,6.30
2018-08-20T01:01:33.895Z,6.27
2018-08-20T01:04:04.934Z,6.70
2018-08-20T01:06:35.748Z,7.00
2018-08-20T01:09:08.766Z,7.43
2018-08-20T01:11:39.625Z,7.13
2018-08-20T01:14:10.437Z,6.87
2018-08-20T01:16:41.366Z,6.47
2018-08-20T01:19:12.233Z,6.93
2018-08-20T01:21:43.125Z,6.77
2018-08-20T01:24:13.906Z,6.93
2018-08-20T01:26:44.698Z,6.13
2018-08-20T01:29:15.573Z,6.60
2018-08-20T01:31:46.414Z,6.50
2018-08-20T01:34:17.331Z,6.37
2018-08-20T01:36:48.189Z,6.40
2018-08-20T01:39:19.059Z,6.63
2018-08-20T01:41:49.855Z,7.57
2018-08-20T01:44:20.840Z,6.67
2018-08-20T01:46:51.742Z,7.10
2018-08-20T01:49:22.569Z,7.13
2018-08-20T01:51:53.441Z,6.90
2018-08-20T01:54:24.262Z,7.20
2018-08-20T01:56:55.104Z,7.27
2018-08-20T01:59:25.988Z,7.40
2018-08-20T02:01:56.845Z,7.57
2018-08-20T02:04:27.672Z,6.70
2018-08-20T02:06:58.615Z,7.10
2018-08-20T02:09:29.347Z,7.20
2018-08-20T02:12:00.210Z,6.83
2018-08-20T02:14:31.010Z,6.80
2018-08-20T02:17:01.926Z,6.57
2018-08-20T02:19:32.725Z,6.30
2018-08-20T02:22:03.777Z,6.77
2018-08-20T02:24:34.720Z,7.37
2018-08-20T02:27:05.813Z,6.90
2018-08-20T02:29:36.729Z,6.87
2018-08-20T02:32:07.773Z,6.90
2018-08-20T02:34:38.717Z,6.97
2018-08-20T02:37:09.695Z,6.50
2018-08-20T02:39:40.610Z,7.13
2018-08-20T02:42:11.504Z,7.10
2018-08-20T02:44:42.520Z,6.57
2018-08-20T02:47:13.437Z,6.90
2018-08-20T02:49:44.258Z,7.10
2018-08-20T02:52:15.054Z,6.90
2018-08-20T02:54:45.885Z,6.63
2018-08-20T02:57:16.666Z,6.80
2018-08-20T02:59:47.536Z,7.67
2018-08-20T03:02:18.416Z,7.03
2018-08-20T03:04:49.228Z,7.10
2018-08-20T03:07:20.087Z,6.93
2018-08-20T03:09:50.973Z,7.10
2018-08-20T03:12:21.853Z,6.87
2018-08-20T03:14:52.565Z,7.10
2018-08-20T03:17:23.477Z,7.20
2018-08-20T03:19:54.328Z,7.40
2018-08-20T03:22:25.169Z,7.70
2018-08-20T03:24:55.959Z,7.83
2018-08-20T03:27:27.720Z,7.00
2018-08-20T03:29:58.625Z,7.47
2018-08-20T03:32:29.449Z,7.10
2018-08-20T03:35:00.175Z,6.97
2018-08-20T03:37:31.036Z,6.93
2018-08-20T03:40:02.095Z,6.80
2018-08-20T03:42:33.044Z,7.30
2018-08-20T03:45:04.227Z,6.90
2018-08-20T03:47:35.261Z,7.57
2018-08-20T03:50:09.337Z,7.47
2018-08-20T03:52:40.304Z,7.23
2018-08-20T03:55:11.124Z,7.23
2018-08-20T03:57:41.985Z,8.27
2018-08-20T04:00:13.602Z,7.23
2018-08-20T04:02:44.519Z,7.27
2018-08-20T04:05:15.259Z,8.20
2018-08-20T04:07:46.137Z,8.30
2018-08-20T04:10:16.982Z,7.47
2018-08-20T04:12:47.821Z,7.13
2018-08-20T04:15:18.551Z,8.03
2018-08-20T04:17:49.411Z,8.07
2018-08-20T04:20:20.189Z,7.37
2018-08-20T04:22:51.097Z,7.70
2018-08-20T04:25:21.934Z,6.77
2018-08-20T04:27:52.765Z,7.23
2018-08-20T04:30:23.717Z,8.00
2018-08-20T04:32:54.484Z,7.70
2018-08-20T04:35:25.317Z,7.60
2018-08-20T04:37:56.136Z,7.30
2018-08-20T04:40:26.953Z,7.17
2018-08-20T04:42:57.863Z,7.07
2018-08-20T04:45:28.953Z,6.87
2018-08-20T04:47:59.802Z,6.60
2018-08-20T04:50:30.771Z,6.80
2018-08-20T04:53:01.389Z,7.30
2018-08-20T04:55:32.291Z,6.17
2018-08-20T05:55:37.957Z,6.80
2018-08-20T05:58:10.462Z,6.47
2018-08-20T06:00:41.658Z,6.27
2018-08-20T06:03:13.461Z,6.20
2018-08-20T06:05:44.811Z,6.33
2018-08-20T06:08:16.157Z,6.47
2018-08-20T06:10:47.609Z,5.93
2018-08-20T06:13:18.861Z,6.70
2018-08-20T06:15:50.015Z,6.50
2018-08-20T06:18:21.064Z,6.60
2018-08-20T06:20:52.382Z,5.80
2018-08-20T06:23:23.858Z,5.60
2018-08-20T06:25:55.284Z,5.60
2018-08-20T06:28:27.301Z,6.30
2018-08-20T06:30:58.518Z,5.73
2018-08-20T06:33:30.796Z,5.97
2018-08-20T06:36:03.831Z,6.17
2018-08-20T06:38:34.986Z,6.40
2018-08-20T06:41:06.271Z,5.80
2018-08-20T06:43:37.414Z,6.03
2018-08-20T06:46:09.915Z,5.97
2018-08-20T06:48:41.046Z,6.03
2018-08-20T06:51:12.130Z,5.60
2018-08-20T06:53:43.285Z,5.13
2018-08-20T06:56:14.734Z,5.57
2018-08-20T06:58:45.951Z,5.60
2018-08-20T07:01:17.894Z,5.73
2018-08-20T07:03:52.362Z,5.50
2018-08-20T07:06:23.546Z,5.33
2018-08-20T07:08:55.268Z,5.00
2018-08-20T07:11:26.536Z,5.57
2018-08-20T07:13:57.640Z,5.80
2018-08-20T07:16:29.413Z,5.67
2018-08-20T07:19:00.526Z,5.47
2018-08-20T07:21:32.344Z,5.67
2018-08-20T07:24:04.396Z,5.40
2018-08-20T07:26:35.393Z,5.67
2018-08-20T07:29:06.558Z,5.10
2018-08-20T07:31:37.545Z,5.10
2018-08-20T07:34:08.653Z,5.23
2018-08-20T07:36:39.628Z,4.90
2018-08-20T07:39:10.833Z,5.30
2018-08-20T07:41:41.935Z,5.50
2018-08-20T07:44:13.044Z,5.63
2018-08-20T07:46:43.997Z,5.57
2018-08-20T07:49:19.149Z,5.17
2018-08-20T07:51:51.253Z,5.50
2018-08-20T07:54:22.994Z,5.00
2018-08-20T07:56:54.413Z,5.20
2018-08-20T07:59:25.534Z,5.30
2018-08-20T08:01:57.321Z,4.97
2018-08-20T08:04:28.404Z,4.93
2018-08-20T08:06:59.870Z,5.07
2018-08-20T08:09:31.904Z,4.30
2018-08-20T08:12:03.126Z,4.70
2018-08-20T08:14:34.394Z,4.90
2018-08-20T08:17:05.361Z,5.00
2018-08-20T08:19:36.538Z,4.87
2018-08-20T08:22:07.620Z,4.97
2018-08-20T08:24:38.650Z,4.80
2018-08-20T08:27:09.613Z,4.73
2018-08-20T08:29:40.619Z,4.47
2018-08-20T08:32:11.537Z,4.40
2018-08-20T08:34:42.410Z,4.40
2018-08-20T08:37:13.401Z,4.60
2018-08-20T08:39:44.354Z,4.67
2018-08-20T08:42:15.316Z,4.73
2018-08-20T08:44:46.383Z,4.70
2018-08-20T08:47:17.345Z,4.80
2018-08-20T08:49:48.452Z,4.40
2018-08-20T08:52:19.395Z,4.60
2018-08-20T08:54:50.312Z,4.33
2018-08-20T08:57:21.566Z,3.93
2018-08-20T08:59:52.588Z,4.50
2018-08-20T09:02:23.430Z,4.90
2018-08-20T09:04:55.058Z,4.50
2018-08-20T09:07:25.966Z,4.83
2018-08-20T09:09:57.925Z,3.90
2018-08-20T09:12:28.951Z,4.47
2018-08-20T09:15:04.388Z,4.57
2018-08-20T09:17:35.582Z,4.80
2018-08-20T09:20:09.387Z,4.63
2018-08-20T09:22:40.741Z,4.73
2018-08-20T09:25:13.139Z,4.40
2018-08-20T09:27:45.343Z,4.60
2018-08-20T09:30:19.794Z,4.83
2018-08-20T09:32:50.967Z,4.70
2018-08-20T09:35:22.031Z,4.23
2018-08-20T09:37:53.101Z,4.37
2018-08-20T09:40:25.938Z,4.33
2018-08-20T09:42:56.904Z,4.90
2018-08-20T09:45:29.602Z,4.17
2018-08-20T09:48:00.619Z,4.33
2018-08-20T09:50:33.427Z,4.63
2018-08-20T09:53:04.431Z,4.47
2018-08-20T09:55:35.486Z,4.60
2018-08-20T09:58:06.755Z,4.67
2018-08-20T10:00:41.810Z,4.53
2018-08-20T10:03:12.777Z,4.60
2018-08-20T10:05:43.625Z,4.90
2018-08-20T10:08:14.489Z,5.20
2018-08-20T10:10:45.440Z,4.70
2018-08-20T10:13:16.425Z,4.53
2018-08-20T10:15:47.311Z,4.63
2018-08-20T10:18:19.180Z,4.40
2018-08-20T10:20:50.101Z,4.67
2018-08-20T10:23:21.037Z,4.30
2018-08-20T10:25:52.039Z,4.60
2018-08-20T10:28:23.002Z,4.90
2018-08-20T10:30:54.375Z,4.20
2018-08-20T10:33:25.401Z,4.30
2018-08-20T10:35:56.324Z,4.73
2018-08-20T10:38:27.347Z,4.40
2018-08-20T10:40:58.351Z,4.37
2018-08-20T10:43:29.448Z,4.83
2018-08-20T10:46:05.407Z,4.47
2018-08-20T10:48:36.529Z,4.33
2018-08-20T10:51:08.557Z,4.20
2018-08-20T10:53:39.525Z,4.50
2018-08-20T10:56:10.569Z,4.43
2018-08-20T10:58:41.935Z,3.93
2018-08-20T11:01:13.001Z,3.97
2018-08-20T11:03:47.889Z,3.97
2018-08-20T11:06:18.890Z,3.97
2018-08-20T11:08:50.379Z,4.10
2018-08-20T11:11:21.561Z,3.60
2018-08-20T11:13:55.688Z,3.80
2018-08-20T11:16:26.953Z,3.90
2018-08-20T11:18:58.878Z,3.97
2018-08-20T11:21:29.958Z,4.10
2018-08-20T11:24:01.136Z,4.80
2018-08-20T11:26:33.622Z,4.87
2018-08-20T11:29:15.949Z,4.40
2018-08-20T11:31:47.891Z,4.73
2018-08-20T11:34:20.264Z,4.77
2018-08-20T11:36:51.394Z,4.57
2018-08-20T11:39:22.429Z,4.47
2018-08-20T11:41:53.613Z,4.53
2018-08-20T11:44:24.920Z,3.83
2018-08-20T11:46:56.804Z,3.90
2018-08-20T15:56:42.581Z,6.50
2018-08-20T15:59:13.698Z,4.20
2018-08-20T16:01:44.945Z,4.13
2018-08-20T16:04:16.193Z,4.27
2018-08-20T16:06:48.729Z,4.50
2018-08-20T16:09:20.761Z,4.70
2018-08-20T16:11:52.957Z,4.30
2018-08-20T16:14:24.094Z,4.40
2018-08-20T16:16:57.013Z,4.40
2018-08-20T16:19:29.159Z,4.70
2018-08-20T16:22:00.156Z,4.40
2018-08-20T16:24:31.177Z,4.17
2018-08-20T16:27:02.380Z,4.53
2018-08-20T16:44:16.269Z,4.27
2018-08-20T16:46:47.352Z,4.20
2018-08-20T16:49:18.462Z,4.50
2018-08-20T16:51:49.507Z,4.63
2018-08-20T16:54:20.747Z,4.73
2018-08-20T16:56:52.747Z,4.60
2018-08-20T16:59:23.922Z,4.47
2018-08-20T17:01:55.699Z,4.40
2018-08-20T17:04:39.970Z,4.60
2018-08-20T17:07:11.132Z,4.87
2018-08-20T17:09:42.225Z,4.07
2018-08-20T17:12:13.470Z,4.77
2018-08-20T17:14:44.445Z,4.43
2018-08-20T17:20:22.333Z,4.77
2018-08-20T17:23:04.059Z,4.40
2018-08-20T17:25:35.092Z,5.00
2018-08-20T17:28:06.217Z,4.77
2018-08-20T17:30:37.155Z,4.63
2018-08-20T17:33:09.282Z,4.77
2018-08-20T17:35:42.593Z,4.93
2018-08-20T17:38:14.500Z,4.90
2018-08-20T17:40:45.509Z,4.83
2018-08-20T17:43:16.522Z,4.90
2018-08-20T17:45:47.452Z,5.03
2018-08-20T17:48:31.973Z,5.47
2018-08-20T17:51:04.537Z,5.17
2018-08-20T17:56:43.382Z,5.20
2018-08-20T17:59:14.714Z,5.70
2018-08-20T18:01:49.998Z,5.37
2018-08-20T18:04:24.007Z,5.27
2018-08-20T18:07:08.787Z,5.27
2018-08-20T18:09:40.805Z,5.33
2018-08-20T18:12:19.200Z,5.30
2018-08-20T18:14:57.881Z,5.90
2018-08-20T18:17:30.784Z,5.20
2018-08-20T18:20:11.395Z,5.33
2018-08-20T18:22:46.461Z,5.70
2018-08-20T18:29:02.818Z,5.80
2018-08-20T18:31:37.949Z,5.90
2018-08-20T18:34:09.302Z,6.07
2018-08-20T18:40:18.997Z,6.33
2018-08-20T18:56:35.956Z,6.67
2018-08-20T18:59:07.258Z,6.47
2018-08-20T19:01:38.671Z,6.20
2018-08-20T19:04:09.574Z,5.90
2018-08-20T19:06:40.683Z,5.80
2018-08-20T19:09:11.728Z,6.20
2018-08-20T19:11:43.792Z,6.07
2018-08-20T19:14:18.447Z,6.37
2018-08-20T19:16:49.513Z,5.87
2018-08-20T19:19:21.349Z,6.03
2018-08-20T19:21:52.272Z,6.47
2018-08-20T19:24:23.800Z,6.67
2018-08-20T19:26:57.216Z,6.23
2018-08-20T19:29:29.239Z,6.40
2018-08-20T19:32:00.317Z,5.97
2018-08-20T19:34:31.584Z,6.10
2018-08-20T19:37:02.616Z,6.23
2018-08-20T19:39:33.563Z,6.23
2018-08-20T19:42:07.532Z,6.70
2018-08-20T19:45:01.477Z,5.97
2018-08-20T19:47:33.695Z,6.67
2018-08-20T19:50:13.462Z,6.20
2018-08-20T19:52:44.490Z,6.37
2018-08-20T19:55:15.744Z,5.90
2018-08-20T19:58:02.783Z,6.33
2018-08-20T20:03:59.709Z,5.67
2018-08-20T20:06:41.365Z,6.33
2018-08-20T20:09:38.887Z,6.07
2018-08-20T20:12:14.748Z,5.97
2018-08-20T20:14:47.793Z,5.47
2018-08-20T20:17:19.333Z,5.83
2018-08-20T20:19:51.675Z,6.13
2018-08-20T20:22:25.610Z,6.13
2018-08-20T20:24:56.583Z,6.10
2018-08-20T20:27:27.787Z,6.17
2018-08-20T20:30:00.857Z,6.03
2018-08-20T20:32:34.894Z,6.07
2018-08-20T20:35:08.878Z,6.47
2018-08-20T20:37:58.330Z,6.23
2018-08-20T20:40:29.524Z,6.03
2018-08-20T20:43:02.657Z,5.77
2018-08-20T20:45:33.887Z,5.90
2018-08-20T21:07:03.096Z,5.83
2018-08-20T21:10:12.764Z,6.13
2018-08-20T21:12:46.686Z,5.90
